sensor_id;sensor_type;location;lat;lon;timestamp;temperature;humidity
27896;DHT22;15241;48.374;10.876;2023-07-09T00:02:24;22.60;99.90
27896;DHT22;15241;48.374;10.876;2023-07-09T00:07:26;22.50;99.90
27896;DHT22;15241;48.374;10.876;2023-07-09T00:12:25;22.40;99.90
27896;DHT22;15241;48.374;10.876;2023-07-09T00:17:26;22.30;99.90
27896;DHT22;15241;48.374;10.876;2023-07-09T00:22:26;22.30;99.90
27896;DHT22;15241;48.374;10.876;2023-07-09T00:27:27;22.20;99.90
27896;DHT22;15241;48.374;10.876;2023-07-09T00:32:26;22.10;99.90
27896;DHT22;15241;48.374;10.876;2023-07-09T00:37:26;22.10;99.90
27896;DHT22;15241;48.374;10.876;2023-07-09T00:42:25;22.00;99.90
27896;DHT22;15241;48.374;10.876;2023-07-09T00:47:28;22.00;99.90
27896;DHT22;15241;48.374;10.876;2023-07-09T00:52:38;21.90;99.90
27896;DHT22;15241;48.374;10.876;2023-07-09T00:57:29;21.90;99.90
27896;DHT22;15241;48.374;10.876;2023-07-09T01:02:28;21.80;99.90
27896;DHT22;15241;48.374;10.876;2023-07-09T01:07:27;21.70;99.90
27896;DHT22;15241;48.374;10.876;2023-07-09T01:12:26;21.70;99.90
27896;DHT22;15241;48.374;10.876;2023-07-09T01:17:26;21.60;99.90
27896;DHT22;15241;48.374;10.876;2023-07-09T01:22:26;21.60;99.90
27896;DHT22;15241;48.374;10.876;2023-07-09T01:27:27;21.50;99.90
27896;DHT22;15241;48.374;10.876;2023-07-09T01:32:26;21.50;99.90
27896;DHT22;15241;48.374;10.876;2023-07-09T01:37:27;21.40;99.90
27896;DHT22;15241;48.374;10.876;2023-07-09T01:42:27;21.30;99.90
27896;DHT22;15241;48.374;10.876;2023-07-09T01:47:26;21.30;99.90
27896;DHT22;15241;48.374;10.876;2023-07-09T01:52:27;21.20;99.90
27896;DHT22;15241;48.374;10.876;2023-07-09T01:57:27;21.10;99.90
27896;DHT22;15241;48.374;10.876;2023-07-09T02:02:27;21.10;99.90
27896;DHT22;15241;48.374;10.876;2023-07-09T02:07:26;21.10;99.90
27896;DHT22;15241;48.374;10.876;2023-07-09T02:12:25;21.00;99.90
27896;DHT22;15241;48.374;10.876;2023-07-09T02:17:24;21.00;99.90
27896;DHT22;15241;48.374;10.876;2023-07-09T02:22:23;21.00;99.90
27896;DHT22;15241;48.374;10.876;2023-07-09T02:27:22;20.80;99.90
27896;DHT22;15241;48.374;10.876;2023-07-09T02:32:23;20.80;99.90
27896;DHT22;15241;48.374;10.876;2023-07-09T02:37:24;20.70;99.90
27896;DHT22;15241;48.374;10.876;2023-07-09T02:42:23;20.70;99.90
27896;DHT22;15241;48.374;10.876;2023-07-09T02:47:22;20.60;99.90
27896;DHT22;15241;48.374;10.876;2023-07-09T02:52:21;20.60;99.90
27896;DHT22;15241;48.374;10.876;2023-07-09T02:57:20;20.50;99.90
27896;DHT22;15241;48.374;10.876;2023-07-09T03:02:20;20.40;99.90
27896;DHT22;15241;48.374;10.876;2023-07-09T03:07:18;20.30;99.90
27896;DHT22;15241;48.374;10.876;2023-07-09T03:12:17;20.30;99.90
27896;DHT22;15241;48.374;10.876;2023-07-09T03:17:16;20.30;99.90
27896;DHT22;15241;48.374;10.876;2023-07-09T03:22:15;20.20;99.90
27896;DHT22;15241;48.374;10.876;2023-07-09T03:27:14;20.20;99.90
27896;DHT22;15241;48.374;10.876;2023-07-09T03:32:13;20.20;99.90
27896;DHT22;15241;48.374;10.876;2023-07-09T03:37:12;20.10;99.90
27896;DHT22;15241;48.374;10.876;2023-07-09T03:42:11;20.20;99.90
27896;DHT22;15241;48.374;10.876;2023-07-09T03:47:10;20.20;99.90
27896;DHT22;15241;48.374;10.876;2023-07-09T03:52:09;20.10;99.90
27896;DHT22;15241;48.374;10.876;2023-07-09T03:57:09;20.10;99.90
27896;DHT22;15241;48.374;10.876;2023-07-09T04:02:08;20.10;99.90
27896;DHT22;15241;48.374;10.876;2023-07-09T04:07:07;20.10;99.90
27896;DHT22;15241;48.374;10.876;2023-07-09T04:12:08;20.20;99.90
27896;DHT22;15241;48.374;10.876;2023-07-09T04:17:07;20.20;99.90
27896;DHT22;15241;48.374;10.876;2023-07-09T04:22:06;20.20;99.90
27896;DHT22;15241;48.374;10.876;2023-07-09T04:27:08;20.30;99.90
27896;DHT22;15241;48.374;10.876;2023-07-09T04:32:11;20.30;99.90
27896;DHT22;15241;48.374;10.876;2023-07-09T04:37:11;20.40;99.90
27896;DHT22;15241;48.374;10.876;2023-07-09T04:42:12;20.40;99.90
27896;DHT22;15241;48.374;10.876;2023-07-09T04:47:12;20.50;99.90
27896;DHT22;15241;48.374;10.876;2023-07-09T04:52:11;20.60;99.90
27896;DHT22;15241;48.374;10.876;2023-07-09T04:57:10;20.70;99.90
27896;DHT22;15241;48.374;10.876;2023-07-09T05:02:10;20.60;99.90
27896;DHT22;15241;48.374;10.876;2023-07-09T05:07:10;20.80;99.90
27896;DHT22;15241;48.374;10.876;2023-07-09T05:12:10;20.90;99.90
27896;DHT22;15241;48.374;10.876;2023-07-09T05:17:09;21.00;99.90
27896;DHT22;15241;48.374;10.876;2023-07-09T05:22:08;21.20;99.90
27896;DHT22;15241;48.374;10.876;2023-07-09T05:27:07;21.30;99.90
27896;DHT22;15241;48.374;10.876;2023-07-09T05:32:07;21.50;99.90
27896;DHT22;15241;48.374;10.876;2023-07-09T05:37:06;21.50;99.90
27896;DHT22;15241;48.374;10.876;2023-07-09T05:42:07;21.80;99.90
27896;DHT22;15241;48.374;10.876;2023-07-09T05:47:07;21.90;99.90
27896;DHT22;15241;48.374;10.876;2023-07-09T05:52:07;22.10;99.90
27896;DHT22;15241;48.374;10.876;2023-07-09T05:57:07;22.20;99.90
27896;DHT22;15241;48.374;10.876;2023-07-09T06:02:10;22.30;99.90
27896;DHT22;15241;48.374;10.876;2023-07-09T06:07:09;22.40;99.90
27896;DHT22;15241;48.374;10.876;2023-07-09T06:12:09;22.50;99.90
27896;DHT22;15241;48.374;10.876;2023-07-09T06:17:08;22.70;99.90
27896;DHT22;15241;48.374;10.876;2023-07-09T06:22:07;23.00;99.90
27896;DHT22;15241;48.374;10.876;2023-07-09T06:27:06;23.10;99.90
27896;DHT22;15241;48.374;10.876;2023-07-09T06:32:07;23.30;99.90
27896;DHT22;15241;48.374;10.876;2023-07-09T06:37:06;23.50;99.90
27896;DHT22;15241;48.374;10.876;2023-07-09T06:42:06;23.70;99.90
27896;DHT22;15241;48.374;10.876;2023-07-09T06:47:06;23.80;99.90
27896;DHT22;15241;48.374;10.876;2023-07-09T06:52:07;24.00;99.90
27896;DHT22;15241;48.374;10.876;2023-07-09T06:57:06;24.20;99.90
27896;DHT22;15241;48.374;10.876;2023-07-09T07:02:07;24.30;99.90
27896;DHT22;15241;48.374;10.876;2023-07-09T07:07:06;24.40;99.90
27896;DHT22;15241;48.374;10.876;2023-07-09T07:12:07;24.60;99.90
27896;DHT22;15241;48.374;10.876;2023-07-09T07:17:06;24.80;99.90
27896;DHT22;15241;48.374;10.876;2023-07-09T07:22:05;25.00;99.90
27896;DHT22;15241;48.374;10.876;2023-07-09T07:27:06;25.20;99.90
27896;DHT22;15241;48.374;10.876;2023-07-09T07:32:08;25.40;99.90
27896;DHT22;15241;48.374;10.876;2023-07-09T07:37:07;25.60;99.90
27896;DHT22;15241;48.374;10.876;2023-07-09T07:42:07;25.80;99.90
27896;DHT22;15241;48.374;10.876;2023-07-09T07:47:07;26.00;99.90
27896;DHT22;15241;48.374;10.876;2023-07-09T07:52:08;26.10;99.90
27896;DHT22;15241;48.374;10.876;2023-07-09T07:57:07;26.20;99.90
27896;DHT22;15241;48.374;10.876;2023-07-09T08:02:10;26.40;99.90
27896;DHT22;15241;48.374;10.876;2023-07-09T08:07:10;26.70;99.90
27896;DHT22;15241;48.374;10.876;2023-07-09T08:12:12;26.90;99.90
27896;DHT22;15241;48.374;10.876;2023-07-09T08:17:11;27.00;99.90
27896;DHT22;15241;48.374;10.876;2023-07-09T08:22:10;27.30;99.90
27896;DHT22;15241;48.374;10.876;2023-07-09T08:27:09;27.50;99.90
27896;DHT22;15241;48.374;10.876;2023-07-09T08:32:10;27.60;99.90
27896;DHT22;15241;48.374;10.876;2023-07-09T08:37:09;27.70;99.90
27896;DHT22;15241;48.374;10.876;2023-07-09T08:42:11;28.00;99.90
27896;DHT22;15241;48.374;10.876;2023-07-09T08:47:14;28.20;99.90
27896;DHT22;15241;48.374;10.876;2023-07-09T08:52:14;28.30;99.10
27896;DHT22;15241;48.374;10.876;2023-07-09T08:57:19;28.60;98.90
27896;DHT22;15241;48.374;10.876;2023-07-09T09:02:25;28.80;99.50
27896;DHT22;15241;48.374;10.876;2023-07-09T09:07:38;29.10;98.60
27896;DHT22;15241;48.374;10.876;2023-07-09T09:12:33;29.30;96.50
27896;DHT22;15241;48.374;10.876;2023-07-09T09:17:33;29.60;97.20
27896;DHT22;15241;48.374;10.876;2023-07-09T09:22:39;29.80;97.80
27896;DHT22;15241;48.374;10.876;2023-07-09T09:27:37;30.20;96.80
27896;DHT22;15241;48.374;10.876;2023-07-09T09:32:39;30.30;95.40
27896;DHT22;15241;48.374;10.876;2023-07-09T09:37:38;30.60;95.20
27896;DHT22;15241;48.374;10.876;2023-07-09T09:42:37;30.90;95.10
27896;DHT22;15241;48.374;10.876;2023-07-09T09:47:36;31.20;95.50
27896;DHT22;15241;48.374;10.876;2023-07-09T09:52:35;31.40;94.60
27896;DHT22;15241;48.374;10.876;2023-07-09T09:57:34;31.60;93.80
27896;DHT22;15241;48.374;10.876;2023-07-09T10:02:38;31.80;93.50
27896;DHT22;15241;48.374;10.876;2023-07-09T10:12:47;32.40;92.10
27896;DHT22;15241;48.374;10.876;2023-07-09T10:17:51;32.60;90.90
27896;DHT22;15241;48.374;10.876;2023-07-09T10:22:54;32.80;90.60
27896;DHT22;15241;48.374;10.876;2023-07-09T10:33:24;33.40;88.80
27896;DHT22;15241;48.374;10.876;2023-07-09T10:38:31;33.50;84.10
27896;DHT22;15241;48.374;10.876;2023-07-09T10:43:33;33.60;82.90
27896;DHT22;15241;48.374;10.876;2023-07-09T10:48:38;33.90;83.60
27896;DHT22;15241;48.374;10.876;2023-07-09T10:53:39;34.20;79.90
27896;DHT22;15241;48.374;10.876;2023-07-09T11:03:52;34.30;76.10
27896;DHT22;15241;48.374;10.876;2023-07-09T11:08:52;34.50;74.70
27896;DHT22;15241;48.374;10.876;2023-07-09T11:13:53;34.80;76.30
27896;DHT22;15241;48.374;10.876;2023-07-09T11:18:56;35.00;75.60
27896;DHT22;15241;48.374;10.876;2023-07-09T11:23:58;35.10;71.30
27896;DHT22;15241;48.374;10.876;2023-07-09T11:29:11;35.30;73.50
27896;DHT22;15241;48.374;10.876;2023-07-09T11:34:15;35.40;70.70
27896;DHT22;15241;48.374;10.876;2023-07-09T11:39:23;35.60;70.70
27896;DHT22;15241;48.374;10.876;2023-07-09T11:44:25;36.00;73.20
27896;DHT22;15241;48.374;10.876;2023-07-09T11:54:37;36.40;67.30
27896;DHT22;15241;48.374;10.876;2023-07-09T11:59:41;36.50;66.50
27896;DHT22;15241;48.374;10.876;2023-07-09T12:04:44;36.60;66.30
27896;DHT22;15241;48.374;10.876;2023-07-09T12:09:47;36.80;68.60
27896;DHT22;15241;48.374;10.876;2023-07-09T12:14:46;37.20;68.80
27896;DHT22;15241;48.374;10.876;2023-07-09T12:19:45;37.30;67.90
27896;DHT22;15241;48.374;10.876;2023-07-09T12:24:46;37.40;63.70
27896;DHT22;15241;48.374;10.876;2023-07-09T12:29:45;37.70;61.80
27896;DHT22;15241;48.374;10.876;2023-07-09T12:34:47;38.00;59.50
27896;DHT22;15241;48.374;10.876;2023-07-09T12:39:46;38.00;59.40
27896;DHT22;15241;48.374;10.876;2023-07-09T12:44:46;38.30;62.70
27896;DHT22;15241;48.374;10.876;2023-07-09T12:49:46;38.40;59.10
27896;DHT22;15241;48.374;10.876;2023-07-09T12:54:53;38.80;61.40
27896;DHT22;15241;48.374;10.876;2023-07-09T12:59:55;39.10;56.60
27896;DHT22;15241;48.374;10.876;2023-07-09T13:05:01;39.30;56.10
27896;DHT22;15241;48.374;10.876;2023-07-09T13:10:05;39.50;53.90
27896;DHT22;15241;48.374;10.876;2023-07-09T13:15:20;39.80;55.90
27896;DHT22;15241;48.374;10.876;2023-07-09T13:20:18;40.20;57.30
27896;DHT22;15241;48.374;10.876;2023-07-09T13:25:17;40.20;54.70
27896;DHT22;15241;48.374;10.876;2023-07-09T13:30:16;40.30;54.70
27896;DHT22;15241;48.374;10.876;2023-07-09T13:35:18;40.50;54.50
27896;DHT22;15241;48.374;10.876;2023-07-09T13:40:17;40.80;55.00
27896;DHT22;15241;48.374;10.876;2023-07-09T13:45:22;41.10;53.50
27896;DHT22;15241;48.374;10.876;2023-07-09T13:50:22;40.80;52.20
27896;DHT22;15241;48.374;10.876;2023-07-09T13:55:23;40.70;51.50
27896;DHT22;15241;48.374;10.876;2023-07-09T14:00:22;40.50;50.00
27896;DHT22;15241;48.374;10.876;2023-07-09T14:05:21;40.80;49.50
27896;DHT22;15241;48.374;10.876;2023-07-09T14:10:20;40.80;50.90
27896;DHT22;15241;48.374;10.876;2023-07-09T14:15:20;41.30;49.90
27896;DHT22;15241;48.374;10.876;2023-07-09T14:20:19;41.30;50.10
27896;DHT22;15241;48.374;10.876;2023-07-09T14:25:21;41.30;51.80
27896;DHT22;15241;48.374;10.876;2023-07-09T14:30:22;41.40;50.60
27896;DHT22;15241;48.374;10.876;2023-07-09T14:35:23;41.50;50.70
27896;DHT22;15241;48.374;10.876;2023-07-09T14:40:23;41.50;51.20
27896;DHT22;15241;48.374;10.876;2023-07-09T14:45:24;41.50;50.10
27896;DHT22;15241;48.374;10.876;2023-07-09T14:50:24;41.80;49.30
27896;DHT22;15241;48.374;10.876;2023-07-09T14:55:23;41.50;51.20
27896;DHT22;15241;48.374;10.876;2023-07-09T15:00:23;41.50;51.50
27896;DHT22;15241;48.374;10.876;2023-07-09T15:05:23;41.10;49.80
27896;DHT22;15241;48.374;10.876;2023-07-09T15:10:24;41.30;51.30
27896;DHT22;15241;48.374;10.876;2023-07-09T15:15:25;41.30;52.10
27896;DHT22;15241;48.374;10.876;2023-07-09T15:20:24;41.10;53.20
27896;DHT22;15241;48.374;10.876;2023-07-09T15:25:26;41.00;51.50
27896;DHT22;15241;48.374;10.876;2023-07-09T15:30:27;41.00;52.30
27896;DHT22;15241;48.374;10.876;2023-07-09T15:35:26;41.00;51.80
27896;DHT22;15241;48.374;10.876;2023-07-09T15:40:28;40.90;52.30
27896;DHT22;15241;48.374;10.876;2023-07-09T15:45:25;40.70;51.50
27896;DHT22;15241;48.374;10.876;2023-07-09T15:50:26;40.80;50.50
27896;DHT22;15241;48.374;10.876;2023-07-09T16:00:35;40.00;52.50
27896;DHT22;15241;48.374;10.876;2023-07-09T16:05:35;40.10;51.10
27896;DHT22;15241;48.374;10.876;2023-07-09T16:10:34;39.90;51.20
27896;DHT22;15241;48.374;10.876;2023-07-09T16:15:32;39.80;52.90
27896;DHT22;15241;48.374;10.876;2023-07-09T16:20:31;39.80;49.40
27896;DHT22;15241;48.374;10.876;2023-07-09T16:25:32;39.60;48.90
27896;DHT22;15241;48.374;10.876;2023-07-09T16:30:32;39.50;51.00
27896;DHT22;15241;48.374;10.876;2023-07-09T16:35:31;39.40;51.70
27896;DHT22;15241;48.374;10.876;2023-07-09T16:40:31;39.20;49.70
27896;DHT22;15241;48.374;10.876;2023-07-09T16:45:30;38.90;50.60
27896;DHT22;15241;48.374;10.876;2023-07-09T16:50:29;38.50;49.70
27896;DHT22;15241;48.374;10.876;2023-07-09T16:55:28;38.10;50.70
27896;DHT22;15241;48.374;10.876;2023-07-09T17:00:29;37.70;51.20
27896;DHT22;15241;48.374;10.876;2023-07-09T17:05:29;37.40;51.00
27896;DHT22;15241;48.374;10.876;2023-07-09T17:10:28;37.40;50.90
27896;DHT22;15241;48.374;10.876;2023-07-09T17:15:29;37.20;51.30
27896;DHT22;15241;48.374;10.876;2023-07-09T17:20:30;36.90;52.20
27896;DHT22;15241;48.374;10.876;2023-07-09T17:25:31;36.40;51.70
27896;DHT22;15241;48.374;10.876;2023-07-09T17:30:31;36.20;52.80
27896;DHT22;15241;48.374;10.876;2023-07-09T17:35:30;35.90;52.90
27896;DHT22;15241;48.374;10.876;2023-07-09T17:40:31;35.80;52.70
27896;DHT22;15241;48.374;10.876;2023-07-09T17:45:30;35.70;54.30
27896;DHT22;15241;48.374;10.876;2023-07-09T17:50:29;35.40;54.00
27896;DHT22;15241;48.374;10.876;2023-07-09T17:55:28;35.20;54.20
27896;DHT22;15241;48.374;10.876;2023-07-09T18:00:27;34.90;55.40
27896;DHT22;15241;48.374;10.876;2023-07-09T18:05:29;34.50;55.60
27896;DHT22;15241;48.374;10.876;2023-07-09T18:10:31;34.30;57.60
27896;DHT22;15241;48.374;10.876;2023-07-09T18:15:31;34.10;58.70
27896;DHT22;15241;48.374;10.876;2023-07-09T18:20:30;33.80;57.90
27896;DHT22;15241;48.374;10.876;2023-07-09T18:25:30;33.60;62.20
27896;DHT22;15241;48.374;10.876;2023-07-09T18:30:32;33.40;63.30
27896;DHT22;15241;48.374;10.876;2023-07-09T18:35:33;33.20;63.20
27896;DHT22;15241;48.374;10.876;2023-07-09T18:40:34;32.80;65.00
27896;DHT22;15241;48.374;10.876;2023-07-09T18:45:34;32.50;67.20
27896;DHT22;15241;48.374;10.876;2023-07-09T18:50:34;32.30;66.70
27896;DHT22;15241;48.374;10.876;2023-07-09T18:55:33;32.10;67.10
27896;DHT22;15241;48.374;10.876;2023-07-09T19:00:31;31.90;68.60
27896;DHT22;15241;48.374;10.876;2023-07-09T19:05:30;31.60;70.50
27896;DHT22;15241;48.374;10.876;2023-07-09T19:10:30;31.30;71.00
27896;DHT22;15241;48.374;10.876;2023-07-09T19:15:32;31.00;70.80
27896;DHT22;15241;48.374;10.876;2023-07-09T19:20:31;30.70;72.20
27896;DHT22;15241;48.374;10.876;2023-07-09T19:25:30;30.40;73.10
27896;DHT22;15241;48.374;10.876;2023-07-09T19:30:29;30.20;74.50
27896;DHT22;15241;48.374;10.876;2023-07-09T19:35:28;30.00;75.60
27896;DHT22;15241;48.374;10.876;2023-07-09T19:40:29;29.80;75.60
27896;DHT22;15241;48.374;10.876;2023-07-09T19:45:31;29.70;76.40
27896;DHT22;15241;48.374;10.876;2023-07-09T19:50:32;29.60;75.40
27896;DHT22;15241;48.374;10.876;2023-07-09T19:55:32;29.50;76.10
27896;DHT22;15241;48.374;10.876;2023-07-09T20:00:30;29.30;75.10
27896;DHT22;15241;48.374;10.876;2023-07-09T20:05:29;29.20;76.50
27896;DHT22;15241;48.374;10.876;2023-07-09T20:10:29;29.10;77.00
27896;DHT22;15241;48.374;10.876;2023-07-09T20:15:28;29.00;78.30
27896;DHT22;15241;48.374;10.876;2023-07-09T20:20:27;28.90;79.30
27896;DHT22;15241;48.374;10.876;2023-07-09T20:25:26;28.60;80.30
27896;DHT22;15241;48.374;10.876;2023-07-09T20:30:25;28.50;81.80
27896;DHT22;15241;48.374;10.876;2023-07-09T20:35:24;28.30;83.10
27896;DHT22;15241;48.374;10.876;2023-07-09T20:40:23;28.10;84.90
27896;DHT22;15241;48.374;10.876;2023-07-09T20:45:24;28.00;84.90
27896;DHT22;15241;48.374;10.876;2023-07-09T20:50:23;27.80;84.70
27896;DHT22;15241;48.374;10.876;2023-07-09T20:55:23;27.80;83.70
27896;DHT22;15241;48.374;10.876;2023-07-09T21:00:23;27.60;82.70
27896;DHT22;15241;48.374;10.876;2023-07-09T21:05:22;27.60;84.40
27896;DHT22;15241;48.374;10.876;2023-07-09T21:10:23;27.40;84.70
27896;DHT22;15241;48.374;10.876;2023-07-09T21:15:25;27.30;86.10
27896;DHT22;15241;48.374;10.876;2023-07-09T21:20:25;27.20;86.30
27896;DHT22;15241;48.374;10.876;2023-07-09T21:25:26;27.10;87.30
27896;DHT22;15241;48.374;10.876;2023-07-09T21:30:25;27.00;88.10
27896;DHT22;15241;48.374;10.876;2023-07-09T21:35:26;26.90;88.50
27896;DHT22;15241;48.374;10.876;2023-07-09T21:40:28;26.70;89.70
27896;DHT22;15241;48.374;10.876;2023-07-09T21:45:29;26.60;90.40
27896;DHT22;15241;48.374;10.876;2023-07-09T21:50:30;26.50;91.10
27896;DHT22;15241;48.374;10.876;2023-07-09T21:55:29;26.40;91.80
27896;DHT22;15241;48.374;10.876;2023-07-09T22:00:28;26.30;91.70
27896;DHT22;15241;48.374;10.876;2023-07-09T22:05:29;26.20;92.50
27896;DHT22;15241;48.374;10.876;2023-07-09T22:10:32;26.10;92.40
27896;DHT22;15241;48.374;10.876;2023-07-09T22:15:32;26.00;92.80
27896;DHT22;15241;48.374;10.876;2023-07-09T22:20:32;25.90;93.10
27896;DHT22;15241;48.374;10.876;2023-07-09T22:25:31;25.90;92.10
27896;DHT22;15241;48.374;10.876;2023-07-09T22:30:32;25.70;93.70
27896;DHT22;15241;48.374;10.876;2023-07-09T22:35:32;25.70;93.80
27896;DHT22;15241;48.374;10.876;2023-07-09T22:40:32;25.60;94.20
27896;DHT22;15241;48.374;10.876;2023-07-09T22:45:31;25.50;94.70
27896;DHT22;15241;48.374;10.876;2023-07-09T22:50:32;25.50;95.00
27896;DHT22;15241;48.374;10.876;2023-07-09T22:55:34;25.40;95.10
27896;DHT22;15241;48.374;10.876;2023-07-09T23:00:37;25.30;94.30
27896;DHT22;15241;48.374;10.876;2023-07-09T23:05:36;25.20;94.70
27896;DHT22;15241;48.374;10.876;2023-07-09T23:10:35;25.20;94.70
27896;DHT22;15241;48.374;10.876;2023-07-09T23:15:34;25.10;95.50
27896;DHT22;15241;48.374;10.876;2023-07-09T23:20:33;25.10;94.70
27896;DHT22;15241;48.374;10.876;2023-07-09T23:25:32;25.00;94.80
27896;DHT22;15241;48.374;10.876;2023-07-09T23:30:34;24.90;94.00
27896;DHT22;15241;48.374;10.876;2023-07-09T23:35:33;24.80;93.90
27896;DHT22;15241;48.374;10.876;2023-07-09T23:40:32;24.80;94.00
27896;DHT22;15241;48.374;10.876;2023-07-09T23:45:31;24.80;93.90
27896;DHT22;15241;48.374;10.876;2023-07-09T23:50:31;24.80;93.90
27896;DHT22;15241;48.374;10.876;2023-07-09T23:55:30;24.70;93.90
